sensor_id;sensor_type;location;lat;lon;timestamp;P1;durP1;ratioP1;P2;durP2;ratioP2
39222;SDS011;24936;46.328;11.026;2023-07-31T00:01:55;51.03;;;46.88;;
39222;SDS011;24936;46.328;11.026;2023-07-31T00:04:20;54.50;;;50.38;;
39222;SDS011;24936;46.328;11.026;2023-07-31T00:06:45;43.13;;;40.20;;
39222;SDS011;24936;46.328;11.026;2023-07-31T00:09:11;109.70;;;101.47;;
39222;SDS011;24936;46.328;11.026;2023-07-31T00:11:36;66.80;;;62.10;;
39222;SDS011;24936;46.328;11.026;2023-07-31T00:14:02;56.40;;;52.55;;
39222;SDS011;24936;46.328;11.026;2023-07-31T00:16:27;77.32;;;71.18;;
39222;SDS011;24936;46.328;11.026;2023-07-31T00:18:53;85.22;;;78.88;;
39222;SDS011;24936;46.328;11.026;2023-07-31T00:21:18;65.18;;;61.00;;
39222;SDS011;24936;46.328;11.026;2023-07-31T00:23:43;96.57;;;89.78;;
39222;SDS011;24936;46.328;11.026;2023-07-31T00:26:09;90.63;;;83.82;;
39222;SDS011;24936;46.328;11.026;2023-07-31T00:28:34;80.32;;;74.25;;
39222;SDS011;24936;46.328;11.026;2023-07-31T00:31:00;72.70;;;67.78;;
39222;SDS011;24936;46.328;11.026;2023-07-31T00:33:25;92.70;;;85.03;;
39222;SDS011;24936;46.328;11.026;2023-07-31T00:35:50;80.10;;;73.47;;
39222;SDS011;24936;46.328;11.026;2023-07-31T00:38:16;60.95;;;56.65;;
39222;SDS011;24936;46.328;11.026;2023-07-31T00:40:41;82.28;;;76.07;;
39222;SDS011;24936;46.328;11.026;2023-07-31T00:43:06;67.18;;;61.63;;
39222;SDS011;24936;46.328;11.026;2023-07-31T00:45:32;86.00;;;80.20;;
39222;SDS011;24936;46.328;11.026;2023-07-31T00:47:58;67.60;;;63.05;;
39222;SDS011;24936;46.328;11.026;2023-07-31T00:52:53;62.47;;;58.45;;
39222;SDS011;24936;46.328;11.026;2023-07-31T00:55:18;111.72;;;103.30;;
39222;SDS011;24936;46.328;11.026;2023-07-31T00:57:44;86.25;;;80.30;;
39222;SDS011;24936;46.328;11.026;2023-07-31T01:02:36;73.97;;;68.72;;
39222;SDS011;24936;46.328;11.026;2023-07-31T01:05:02;106.13;;;97.97;;
39222;SDS011;24936;46.328;11.026;2023-07-31T01:10:21;118.22;;;110.78;;
39222;SDS011;24936;46.328;11.026;2023-07-31T01:12:59;117.47;;;108.80;;
39222;SDS011;24936;46.328;11.026;2023-07-31T01:15:24;117.15;;;109.60;;
39222;SDS011;24936;46.328;11.026;2023-07-31T01:17:49;117.47;;;109.85;;
39222;SDS011;24936;46.328;11.026;2023-07-31T01:20:22;114.40;;;106.30;;
39222;SDS011;24936;46.328;11.026;2023-07-31T01:22:54;122.78;;;114.57;;
39222;SDS011;24936;46.328;11.026;2023-07-31T01:28:03;103.22;;;96.68;;
39222;SDS011;24936;46.328;11.026;2023-07-31T01:30:33;121.50;;;112.90;;
39222;SDS011;24936;46.328;11.026;2023-07-31T01:33:02;120.65;;;112.25;;
39222;SDS011;24936;46.328;11.026;2023-07-31T01:35:33;83.72;;;77.82;;
39222;SDS011;24936;46.328;11.026;2023-07-31T01:38:00;40.70;;;37.13;;
39222;SDS011;24936;46.328;11.026;2023-07-31T01:40:25;44.55;;;41.20;;
39222;SDS011;24936;46.328;11.026;2023-07-31T01:42:51;77.75;;;72.88;;
39222;SDS011;24936;46.328;11.026;2023-07-31T01:45:16;55.80;;;51.97;;
39222;SDS011;24936;46.328;11.026;2023-07-31T01:47:42;57.67;;;53.65;;
39222;SDS011;24936;46.328;11.026;2023-07-31T01:50:07;47.45;;;43.58;;
39222;SDS011;24936;46.328;11.026;2023-07-31T01:52:33;58.38;;;54.15;;
39222;SDS011;24936;46.328;11.026;2023-07-31T01:54:58;47.22;;;43.42;;
39222;SDS011;24936;46.328;11.026;2023-07-31T01:57:24;44.47;;;40.90;;
39222;SDS011;24936;46.328;11.026;2023-07-31T01:59:49;57.58;;;53.22;;
39222;SDS011;24936;46.328;11.026;2023-07-31T02:02:15;70.38;;;65.22;;
39222;SDS011;24936;46.328;11.026;2023-07-31T02:07:06;106.82;;;99.82;;
39222;SDS011;24936;46.328;11.026;2023-07-31T02:09:31;91.47;;;85.82;;
39222;SDS011;24936;46.328;11.026;2023-07-31T02:11:57;100.18;;;94.03;;
39222;SDS011;24936;46.328;11.026;2023-07-31T02:14:22;95.95;;;90.32;;
39222;SDS011;24936;46.328;11.026;2023-07-31T02:16:48;96.90;;;90.68;;
39222;SDS011;24936;46.328;11.026;2023-07-31T02:19:13;103.68;;;96.78;;
39222;SDS011;24936;46.328;11.026;2023-07-31T02:21:38;107.85;;;101.18;;
39222;SDS011;24936;46.328;11.026;2023-07-31T02:24:04;98.75;;;92.47;;
39222;SDS011;24936;46.328;11.026;2023-07-31T02:26:29;87.78;;;82.28;;
39222;SDS011;24936;46.328;11.026;2023-07-31T02:28:55;88.72;;;83.40;;
39222;SDS011;24936;46.328;11.026;2023-07-31T02:31:20;114.28;;;106.90;;
39222;SDS011;24936;46.328;11.026;2023-07-31T02:33:45;100.38;;;93.70;;
39222;SDS011;24936;46.328;11.026;2023-07-31T02:36:11;113.15;;;105.13;;
39222;SDS011;24936;46.328;11.026;2023-07-31T02:38:36;86.00;;;80.55;;
39222;SDS011;24936;46.328;11.026;2023-07-31T02:41:02;69.70;;;65.53;;
39222;SDS011;24936;46.328;11.026;2023-07-31T02:43:27;70.40;;;65.13;;
39222;SDS011;24936;46.328;11.026;2023-07-31T02:45:52;66.47;;;61.97;;
39222;SDS011;24936;46.328;11.026;2023-07-31T02:48:18;50.88;;;46.75;;
39222;SDS011;24936;46.328;11.026;2023-07-31T02:50:44;52.80;;;49.42;;
39222;SDS011;24936;46.328;11.026;2023-07-31T02:55:35;79.07;;;73.68;;
39222;SDS011;24936;46.328;11.026;2023-07-31T02:58:01;55.17;;;50.70;;
39222;SDS011;24936;46.328;11.026;2023-07-31T03:00:26;41.20;;;37.90;;
39222;SDS011;24936;46.328;11.026;2023-07-31T03:02:51;57.53;;;53.20;;
39222;SDS011;24936;46.328;11.026;2023-07-31T03:05:17;60.30;;;55.95;;
39222;SDS011;24936;46.328;11.026;2023-07-31T03:07:42;54.97;;;50.90;;
39222;SDS011;24936;46.328;11.026;2023-07-31T03:10:08;55.95;;;51.88;;
39222;SDS011;24936;46.328;11.026;2023-07-31T03:12:33;50.85;;;46.80;;
39222;SDS011;24936;46.328;11.026;2023-07-31T03:14:59;67.55;;;62.78;;
39222;SDS011;24936;46.328;11.026;2023-07-31T03:17:24;74.68;;;69.45;;
39222;SDS011;24936;46.328;11.026;2023-07-31T03:19:50;69.32;;;64.70;;
39222;SDS011;24936;46.328;11.026;2023-07-31T03:22:15;39.38;;;36.35;;
39222;SDS011;24936;46.328;11.026;2023-07-31T03:24:40;61.63;;;56.85;;
39222;SDS011;24936;46.328;11.026;2023-07-31T03:27:06;71.57;;;66.60;;
39222;SDS011;24936;46.328;11.026;2023-07-31T03:29:31;80.60;;;74.72;;
39222;SDS011;24936;46.328;11.026;2023-07-31T03:31:57;87.72;;;81.85;;
39222;SDS011;24936;46.328;11.026;2023-07-31T03:34:22;67.25;;;62.50;;
39222;SDS011;24936;46.328;11.026;2023-07-31T03:36:48;73.40;;;68.57;;
39222;SDS011;24936;46.328;11.026;2023-07-31T03:39:13;62.30;;;57.67;;
39222;SDS011;24936;46.328;11.026;2023-07-31T03:41:39;52.05;;;48.38;;
39222;SDS011;24936;46.328;11.026;2023-07-31T03:44:04;71.05;;;65.78;;
39222;SDS011;24936;46.328;11.026;2023-07-31T03:46:29;47.15;;;43.83;;
39222;SDS011;24936;46.328;11.026;2023-07-31T03:48:55;68.53;;;63.70;;
39222;SDS011;24936;46.328;11.026;2023-07-31T03:51:20;63.27;;;58.93;;
39222;SDS011;24936;46.328;11.026;2023-07-31T03:53:46;85.20;;;78.60;;
39222;SDS011;24936;46.328;11.026;2023-07-31T03:56:11;90.95;;;85.00;;
39222;SDS011;24936;46.328;11.026;2023-07-31T03:58:37;95.97;;;89.57;;
39222;SDS011;24936;46.328;11.026;2023-07-31T04:01:03;94.30;;;87.95;;
39222;SDS011;24936;46.328;11.026;2023-07-31T04:03:28;76.90;;;70.90;;
39222;SDS011;24936;46.328;11.026;2023-07-31T04:05:54;83.88;;;78.53;;
39222;SDS011;24936;46.328;11.026;2023-07-31T04:08:23;80.80;;;75.10;;
39222;SDS011;24936;46.328;11.026;2023-07-31T04:10:49;74.40;;;69.30;;
39222;SDS011;24936;46.328;11.026;2023-07-31T04:13:14;42.45;;;39.40;;
39222;SDS011;24936;46.328;11.026;2023-07-31T04:15:40;53.85;;;48.83;;
39222;SDS011;24936;46.328;11.026;2023-07-31T04:18:06;63.97;;;58.58;;
39222;SDS011;24936;46.328;11.026;2023-07-31T04:20:31;212.73;;;194.48;;
39222;SDS011;24936;46.328;11.026;2023-07-31T04:22:57;184.30;;;169.65;;
39222;SDS011;24936;46.328;11.026;2023-07-31T04:25:22;175.50;;;162.55;;
39222;SDS011;24936;46.328;11.026;2023-07-31T04:27:48;172.68;;;160.05;;
39222;SDS011;24936;46.328;11.026;2023-07-31T04:30:16;170.32;;;157.60;;
39222;SDS011;24936;46.328;11.026;2023-07-31T04:32:42;1999.90;;;999.90;;
39222;SDS011;24936;46.328;11.026;2023-07-31T04:35:07;1999.90;;;999.90;;
39222;SDS011;24936;46.328;11.026;2023-07-31T04:37:33;1999.90;;;999.90;;
39222;SDS011;24936;46.328;11.026;2023-07-31T04:39:58;1999.90;;;999.90;;
39222;SDS011;24936;46.328;11.026;2023-07-31T04:42:23;1999.90;;;999.90;;
39222;SDS011;24936;46.328;11.026;2023-07-31T04:44:49;1999.90;;;999.90;;
39222;SDS011;24936;46.328;11.026;2023-07-31T04:47:14;1999.90;;;999.90;;
39222;SDS011;24936;46.328;11.026;2023-07-31T04:49:40;1999.90;;;999.90;;
39222;SDS011;24936;46.328;11.026;2023-07-31T04:52:05;1999.90;;;999.90;;
39222;SDS011;24936;46.328;11.026;2023-07-31T04:54:31;1999.90;;;999.90;;
39222;SDS011;24936;46.328;11.026;2023-07-31T04:56:56;1999.90;;;999.90;;
39222;SDS011;24936;46.328;11.026;2023-07-31T04:59:22;1999.90;;;999.90;;
39222;SDS011;24936;46.328;11.026;2023-07-31T05:01:47;1999.90;;;999.90;;
39222;SDS011;24936;46.328;11.026;2023-07-31T05:04:13;1999.90;;;999.90;;
39222;SDS011;24936;46.328;11.026;2023-07-31T05:06:39;1999.90;;;999.90;;
39222;SDS011;24936;46.328;11.026;2023-07-31T05:09:05;1999.90;;;999.90;;
39222;SDS011;24936;46.328;11.026;2023-07-31T05:11:30;1999.90;;;996.75;;
39222;SDS011;24936;46.328;11.026;2023-07-31T05:13:56;1999.90;;;897.05;;
39222;SDS011;24936;46.328;11.026;2023-07-31T05:16:21;1999.90;;;748.95;;
39222;SDS011;24936;46.328;11.026;2023-07-31T05:18:47;1999.90;;;825.53;;
39222;SDS011;24936;46.328;11.026;2023-07-31T05:21:12;1999.90;;;832.08;;
39222;SDS011;24936;46.328;11.026;2023-07-31T05:23:37;1999.90;;;612.97;;
39222;SDS011;24936;46.328;11.026;2023-07-31T05:26:04;1999.90;;;460.85;;
39222;SDS011;24936;46.328;11.026;2023-07-31T05:28:35;1999.90;;;424.60;;
39222;SDS011;24936;46.328;11.026;2023-07-31T05:31:01;1999.90;;;549.65;;
39222;SDS011;24936;46.328;11.026;2023-07-31T05:33:28;1999.90;;;421.80;;
39222;SDS011;24936;46.328;11.026;2023-07-31T05:35:53;1999.90;;;301.88;;
39222;SDS011;24936;46.328;11.026;2023-07-31T05:38:19;1999.90;;;309.60;;
39222;SDS011;24936;46.328;11.026;2023-07-31T05:40:44;1999.90;;;427.50;;
39222;SDS011;24936;46.328;11.026;2023-07-31T05:43:10;1999.90;;;999.90;;
39222;SDS011;24936;46.328;11.026;2023-07-31T05:45:35;1999.90;;;999.90;;
39222;SDS011;24936;46.328;11.026;2023-07-31T05:50:27;1999.90;;;999.90;;
39222;SDS011;24936;46.328;11.026;2023-07-31T05:52:52;1835.32;;;256.92;;
39222;SDS011;24936;46.328;11.026;2023-07-31T05:55:18;1999.90;;;999.90;;
39222;SDS011;24936;46.328;11.026;2023-07-31T05:57:43;1999.90;;;999.90;;
39222;SDS011;24936;46.328;11.026;2023-07-31T06:00:11;1999.90;;;999.90;;
39222;SDS011;24936;46.328;11.026;2023-07-31T06:02:37;1999.90;;;999.90;;
39222;SDS011;24936;46.328;11.026;2023-07-31T06:05:03;1999.90;;;999.90;;
39222;SDS011;24936;46.328;11.026;2023-07-31T06:07:30;1999.90;;;999.90;;
39222;SDS011;24936;46.328;11.026;2023-07-31T06:12:27;1999.90;;;999.90;;
39222;SDS011;24936;46.328;11.026;2023-07-31T06:14:52;1999.90;;;999.90;;
39222;SDS011;24936;46.328;11.026;2023-07-31T06:17:17;1999.90;;;999.90;;
39222;SDS011;24936;46.328;11.026;2023-07-31T06:22:08;1999.90;;;999.90;;
39222;SDS011;24936;46.328;11.026;2023-07-31T06:26:59;1999.90;;;999.90;;
39222;SDS011;24936;46.328;11.026;2023-07-31T06:31:50;1999.90;;;999.90;;
39222;SDS011;24936;46.328;11.026;2023-07-31T06:36:41;1999.90;;;999.90;;
39222;SDS011;24936;46.328;11.026;2023-07-31T06:41:31;1999.90;;;999.90;;
39222;SDS011;24936;46.328;11.026;2023-07-31T06:46:22;1999.90;;;999.90;;
39222;SDS011;24936;46.328;11.026;2023-07-31T06:51:13;1999.90;;;999.90;;
39222;SDS011;24936;46.328;11.026;2023-07-31T06:56:04;1999.90;;;999.90;;
39222;SDS011;24936;46.328;11.026;2023-07-31T06:58:29;1999.90;;;999.90;;
39222;SDS011;24936;46.328;11.026;2023-07-31T07:00:55;1999.90;;;999.90;;
39222;SDS011;24936;46.328;11.026;2023-07-31T07:03:20;1999.90;;;999.90;;
39222;SDS011;24936;46.328;11.026;2023-07-31T07:05:46;1999.90;;;999.90;;
39222;SDS011;24936;46.328;11.026;2023-07-31T07:10:37;1999.90;;;999.90;;
39222;SDS011;24936;46.328;11.026;2023-07-31T07:13:02;1999.90;;;999.90;;
39222;SDS011;24936;46.328;11.026;2023-07-31T07:15:28;1999.90;;;999.90;;
39222;SDS011;24936;46.328;11.026;2023-07-31T07:17:54;1999.90;;;999.90;;
39222;SDS011;24936;46.328;11.026;2023-07-31T07:20:19;1999.90;;;999.90;;
39222;SDS011;24936;46.328;11.026;2023-07-31T07:22:45;1999.90;;;999.90;;
39222;SDS011;24936;46.328;11.026;2023-07-31T07:25:10;1999.90;;;999.90;;
39222;SDS011;24936;46.328;11.026;2023-07-31T07:27:36;1999.90;;;999.90;;
39222;SDS011;24936;46.328;11.026;2023-07-31T07:30:02;1999.90;;;999.90;;
39222;SDS011;24936;46.328;11.026;2023-07-31T07:32:28;1999.90;;;999.90;;
39222;SDS011;24936;46.328;11.026;2023-07-31T07:34:54;1999.90;;;999.90;;
39222;SDS011;24936;46.328;11.026;2023-07-31T07:37:20;1999.90;;;999.90;;
39222;SDS011;24936;46.328;11.026;2023-07-31T07:39:46;1999.90;;;999.90;;
39222;SDS011;24936;46.328;11.026;2023-07-31T07:42:11;1999.90;;;999.90;;
39222;SDS011;24936;46.328;11.026;2023-07-31T07:44:37;1999.90;;;999.90;;
39222;SDS011;24936;46.328;11.026;2023-07-31T07:47:02;1999.90;;;999.90;;
39222;SDS011;24936;46.328;11.026;2023-07-31T07:49:28;1999.90;;;999.90;;
39222;SDS011;24936;46.328;11.026;2023-07-31T07:51:53;1999.90;;;999.90;;
39222;SDS011;24936;46.328;11.026;2023-07-31T07:54:19;1999.90;;;999.90;;
39222;SDS011;24936;46.328;11.026;2023-07-31T07:56:46;1999.90;;;999.90;;
39222;SDS011;24936;46.328;11.026;2023-07-31T07:59:11;1999.90;;;999.90;;
39222;SDS011;24936;46.328;11.026;2023-07-31T08:01:37;1999.90;;;999.90;;
39222;SDS011;24936;46.328;11.026;2023-07-31T08:04:02;1999.90;;;999.90;;
39222;SDS011;24936;46.328;11.026;2023-07-31T08:06:28;1999.90;;;999.90;;
39222;SDS011;24936;46.328;11.026;2023-07-31T08:08:54;1999.90;;;999.90;;
39222;SDS011;24936;46.328;11.026;2023-07-31T08:11:20;1999.90;;;999.90;;
39222;SDS011;24936;46.328;11.026;2023-07-31T08:13:48;1999.90;;;999.90;;
39222;SDS011;24936;46.328;11.026;2023-07-31T08:16:13;1999.90;;;999.90;;
39222;SDS011;24936;46.328;11.026;2023-07-31T08:18:38;1999.90;;;999.90;;
39222;SDS011;24936;46.328;11.026;2023-07-31T08:21:05;1999.90;;;999.90;;
39222;SDS011;24936;46.328;11.026;2023-07-31T08:23:31;1999.90;;;999.90;;
39222;SDS011;24936;46.328;11.026;2023-07-31T08:25:56;1999.90;;;999.90;;
39222;SDS011;24936;46.328;11.026;2023-07-31T08:28:22;1999.90;;;999.90;;
39222;SDS011;24936;46.328;11.026;2023-07-31T08:30:47;1999.90;;;999.90;;
39222;SDS011;24936;46.328;11.026;2023-07-31T08:33:12;1999.90;;;999.90;;
39222;SDS011;24936;46.328;11.026;2023-07-31T08:35:38;1999.90;;;999.90;;
39222;SDS011;24936;46.328;11.026;2023-07-31T08:38:03;1999.90;;;999.90;;
39222;SDS011;24936;46.328;11.026;2023-07-31T08:40:29;1999.90;;;999.90;;
39222;SDS011;24936;46.328;11.026;2023-07-31T08:42:55;1999.90;;;999.90;;
39222;SDS011;24936;46.328;11.026;2023-07-31T08:45:27;1999.90;;;999.90;;
39222;SDS011;24936;46.328;11.026;2023-07-31T08:47:53;1999.90;;;999.90;;
39222;SDS011;24936;46.328;11.026;2023-07-31T08:50:20;1999.90;;;999.90;;
39222;SDS011;24936;46.328;11.026;2023-07-31T08:52:47;1999.90;;;999.90;;
39222;SDS011;24936;46.328;11.026;2023-07-31T08:55:13;1999.90;;;999.90;;
39222;SDS011;24936;46.328;11.026;2023-07-31T08:57:39;1999.90;;;999.90;;
39222;SDS011;24936;46.328;11.026;2023-07-31T09:00:06;1999.90;;;999.90;;
39222;SDS011;24936;46.328;11.026;2023-07-31T09:02:46;1999.90;;;999.90;;
39222;SDS011;24936;46.328;11.026;2023-07-31T09:05:17;1999.90;;;999.90;;
39222;SDS011;24936;46.328;11.026;2023-07-31T09:07:43;1999.90;;;999.90;;
39222;SDS011;24936;46.328;11.026;2023-07-31T09:10:12;1999.90;;;999.90;;
39222;SDS011;24936;46.328;11.026;2023-07-31T09:12:37;1999.90;;;999.90;;
39222;SDS011;24936;46.328;11.026;2023-07-31T09:15:04;1999.90;;;999.90;;
39222;SDS011;24936;46.328;11.026;2023-07-31T09:17:30;1999.90;;;999.90;;
39222;SDS011;24936;46.328;11.026;2023-07-31T09:22:42;1999.90;;;999.90;;
39222;SDS011;24936;46.328;11.026;2023-07-31T09:27:52;1999.90;;;999.90;;
39222;SDS011;24936;46.328;11.026;2023-07-31T09:30:19;1999.90;;;999.90;;
39222;SDS011;24936;46.328;11.026;2023-07-31T09:32:46;1999.90;;;999.90;;
39222;SDS011;24936;46.328;11.026;2023-07-31T09:35:20;1999.90;;;999.90;;
39222;SDS011;24936;46.328;11.026;2023-07-31T09:37:53;1999.90;;;999.90;;
39222;SDS011;24936;46.328;11.026;2023-07-31T09:43:12;1999.90;;;999.90;;
39222;SDS011;24936;46.328;11.026;2023-07-31T09:45:42;1999.90;;;999.90;;
39222;SDS011;24936;46.328;11.026;2023-07-31T09:48:16;1999.90;;;999.90;;
39222;SDS011;24936;46.328;11.026;2023-07-31T09:50:47;1999.90;;;999.90;;
39222;SDS011;24936;46.328;11.026;2023-07-31T09:53:13;1999.90;;;999.90;;
39222;SDS011;24936;46.328;11.026;2023-07-31T09:55:40;1999.90;;;999.90;;
39222;SDS011;24936;46.328;11.026;2023-07-31T09:58:09;1999.90;;;999.90;;
39222;SDS011;24936;46.328;11.026;2023-07-31T10:00:36;1999.90;;;999.90;;
39222;SDS011;24936;46.328;11.026;2023-07-31T10:03:07;1999.90;;;999.90;;
39222;SDS011;24936;46.328;11.026;2023-07-31T10:08:05;1999.90;;;999.90;;
39222;SDS011;24936;46.328;11.026;2023-07-31T10:10:32;1999.90;;;999.90;;
39222;SDS011;24936;46.328;11.026;2023-07-31T10:13:00;1999.90;;;999.90;;
39222;SDS011;24936;46.328;11.026;2023-07-31T10:15:27;1999.90;;;999.90;;
39222;SDS011;24936;46.328;11.026;2023-07-31T10:17:55;1999.90;;;999.90;;
39222;SDS011;24936;46.328;11.026;2023-07-31T10:20:21;1999.90;;;999.90;;
39222;SDS011;24936;46.328;11.026;2023-07-31T10:22:46;1999.90;;;999.90;;
39222;SDS011;24936;46.328;11.026;2023-07-31T10:25:14;1999.90;;;999.90;;
39222;SDS011;24936;46.328;11.026;2023-07-31T10:27:40;1999.90;;;999.90;;
39222;SDS011;24936;46.328;11.026;2023-07-31T10:30:10;1999.90;;;999.90;;
39222;SDS011;24936;46.328;11.026;2023-07-31T10:32:40;1999.90;;;999.90;;
39222;SDS011;24936;46.328;11.026;2023-07-31T10:35:07;1999.90;;;999.90;;
39222;SDS011;24936;46.328;11.026;2023-07-31T10:37:37;1999.90;;;999.90;;
39222;SDS011;24936;46.328;11.026;2023-07-31T10:40:11;1999.90;;;999.90;;
39222;SDS011;24936;46.328;11.026;2023-07-31T10:42:47;1999.90;;;999.90;;
39222;SDS011;24936;46.328;11.026;2023-07-31T10:48:05;1999.90;;;999.90;;
39222;SDS011;24936;46.328;11.026;2023-07-31T10:50:37;1999.90;;;999.90;;
39222;SDS011;24936;46.328;11.026;2023-07-31T10:53:03;1999.90;;;999.90;;
39222;SDS011;24936;46.328;11.026;2023-07-31T10:55:30;1999.90;;;999.90;;
39222;SDS011;24936;46.328;11.026;2023-07-31T10:57:57;1999.90;;;999.90;;
39222;SDS011;24936;46.328;11.026;2023-07-31T11:00:31;1999.90;;;999.90;;
39222;SDS011;24936;46.328;11.026;2023-07-31T11:03:00;1999.90;;;999.90;;
39222;SDS011;24936;46.328;11.026;2023-07-31T11:08:47;1999.90;;;999.90;;
39222;SDS011;24936;46.328;11.026;2023-07-31T11:11:15;1999.90;;;999.90;;
39222;SDS011;24936;46.328;11.026;2023-07-31T11:16:14;1999.90;;;999.90;;
39222;SDS011;24936;46.328;11.026;2023-07-31T11:18:41;1999.90;;;999.90;;
39222;SDS011;24936;46.328;11.026;2023-07-31T11:21:11;1999.90;;;999.90;;
39222;SDS011;24936;46.328;11.026;2023-07-31T11:23:38;1999.90;;;999.90;;
39222;SDS011;24936;46.328;11.026;2023-07-31T11:26:04;1999.90;;;999.90;;
39222;SDS011;24936;46.328;11.026;2023-07-31T11:28:34;1999.90;;;999.90;;
39222;SDS011;24936;46.328;11.026;2023-07-31T11:31:00;1999.90;;;999.90;;
39222;SDS011;24936;46.328;11.026;2023-07-31T11:33:26;1999.90;;;999.90;;
39222;SDS011;24936;46.328;11.026;2023-07-31T11:35:52;1999.90;;;999.90;;
39222;SDS011;24936;46.328;11.026;2023-07-31T11:38:35;1999.90;;;999.90;;
39222;SDS011;24936;46.328;11.026;2023-07-31T11:41:02;1999.90;;;999.90;;
39222;SDS011;24936;46.328;11.026;2023-07-31T11:43:28;1999.90;;;999.90;;
39222;SDS011;24936;46.328;11.026;2023-07-31T11:45:56;1999.90;;;999.90;;
39222;SDS011;24936;46.328;11.026;2023-07-31T11:48:23;1999.90;;;999.90;;
39222;SDS011;24936;46.328;11.026;2023-07-31T11:51:14;1999.90;;;999.90;;
39222;SDS011;24936;46.328;11.026;2023-07-31T11:56:10;1999.90;;;999.90;;
39222;SDS011;24936;46.328;11.026;2023-07-31T11:58:39;1999.90;;;999.90;;
39222;SDS011;24936;46.328;11.026;2023-07-31T12:01:06;1999.90;;;999.90;;
39222;SDS011;24936;46.328;11.026;2023-07-31T12:03:35;1999.90;;;999.90;;
39222;SDS011;24936;46.328;11.026;2023-07-31T12:06:01;1999.90;;;999.90;;
39222;SDS011;24936;46.328;11.026;2023-07-31T12:08:27;1999.90;;;999.90;;
39222;SDS011;24936;46.328;11.026;2023-07-31T12:10:53;1999.90;;;999.90;;
39222;SDS011;24936;46.328;11.026;2023-07-31T12:13:20;1999.90;;;999.90;;
39222;SDS011;24936;46.328;11.026;2023-07-31T12:15:53;1999.90;;;999.90;;
39222;SDS011;24936;46.328;11.026;2023-07-31T12:18:21;1999.90;;;999.90;;
39222;SDS011;24936;46.328;11.026;2023-07-31T12:20:48;1999.90;;;999.90;;
39222;SDS011;24936;46.328;11.026;2023-07-31T12:23:22;1999.90;;;999.90;;
39222;SDS011;24936;46.328;11.026;2023-07-31T12:28:37;1999.90;;;999.90;;
39222;SDS011;24936;46.328;11.026;2023-07-31T12:33:43;1999.90;;;999.90;;
39222;SDS011;24936;46.328;11.026;2023-07-31T12:36:12;1999.90;;;999.90;;
39222;SDS011;24936;46.328;11.026;2023-07-31T12:38:40;1999.90;;;999.90;;
39222;SDS011;24936;46.328;11.026;2023-07-31T12:41:06;1999.90;;;999.90;;
39222;SDS011;24936;46.328;11.026;2023-07-31T12:43:32;1999.90;;;999.90;;
39222;SDS011;24936;46.328;11.026;2023-07-31T12:45:58;1999.90;;;999.90;;
39222;SDS011;24936;46.328;11.026;2023-07-31T12:48:24;1999.90;;;999.90;;
39222;SDS011;24936;46.328;11.026;2023-07-31T12:50:49;1999.90;;;999.90;;
39222;SDS011;24936;46.328;11.026;2023-07-31T12:53:15;1999.90;;;999.90;;
39222;SDS011;24936;46.328;11.026;2023-07-31T12:55:41;1999.90;;;999.90;;
39222;SDS011;24936;46.328;11.026;2023-07-31T12:58:06;1999.90;;;999.90;;
39222;SDS011;24936;46.328;11.026;2023-07-31T13:00:32;1999.90;;;999.90;;
39222;SDS011;24936;46.328;11.026;2023-07-31T13:02:57;1999.90;;;999.90;;
39222;SDS011;24936;46.328;11.026;2023-07-31T13:05:25;1999.90;;;999.90;;
39222;SDS011;24936;46.328;11.026;2023-07-31T13:07:51;1999.90;;;999.90;;
39222;SDS011;24936;46.328;11.026;2023-07-31T13:10:16;1999.90;;;999.90;;
39222;SDS011;24936;46.328;11.026;2023-07-31T13:12:41;1999.90;;;999.90;;
39222;SDS011;24936;46.328;11.026;2023-07-31T13:15:07;1999.90;;;999.90;;
39222;SDS011;24936;46.328;11.026;2023-07-31T13:17:33;1999.90;;;999.90;;
39222;SDS011;24936;46.328;11.026;2023-07-31T13:19:58;1999.90;;;999.90;;
39222;SDS011;24936;46.328;11.026;2023-07-31T13:22:24;1999.90;;;999.90;;
39222;SDS011;24936;46.328;11.026;2023-07-31T13:24:51;1999.90;;;999.90;;
39222;SDS011;24936;46.328;11.026;2023-07-31T13:27:17;1999.90;;;999.90;;
39222;SDS011;24936;46.328;11.026;2023-07-31T13:29:44;1999.90;;;999.90;;
39222;SDS011;24936;46.328;11.026;2023-07-31T13:32:10;1999.90;;;999.90;;
39222;SDS011;24936;46.328;11.026;2023-07-31T13:34:36;1999.90;;;999.90;;
39222;SDS011;24936;46.328;11.026;2023-07-31T13:37:01;1999.90;;;999.90;;
39222;SDS011;24936;46.328;11.026;2023-07-31T13:39:27;1999.90;;;999.90;;
39222;SDS011;24936;46.328;11.026;2023-07-31T13:41:52;1999.90;;;999.90;;
39222;SDS011;24936;46.328;11.026;2023-07-31T13:44:18;1999.90;;;999.90;;
39222;SDS011;24936;46.328;11.026;2023-07-31T13:46:43;1999.90;;;999.90;;
39222;SDS011;24936;46.328;11.026;2023-07-31T13:49:09;1999.90;;;999.90;;
39222;SDS011;24936;46.328;11.026;2023-07-31T13:51:34;1999.90;;;999.90;;
39222;SDS011;24936;46.328;11.026;2023-07-31T13:54:00;1999.90;;;999.90;;
39222;SDS011;24936;46.328;11.026;2023-07-31T13:56:26;1999.90;;;999.90;;
39222;SDS011;24936;46.328;11.026;2023-07-31T13:58:52;1999.90;;;999.90;;
39222;SDS011;24936;46.328;11.026;2023-07-31T14:01:17;1999.90;;;999.90;;
39222;SDS011;24936;46.328;11.026;2023-07-31T14:03:42;1999.90;;;999.90;;
39222;SDS011;24936;46.328;11.026;2023-07-31T14:06:08;1999.90;;;999.90;;
39222;SDS011;24936;46.328;11.026;2023-07-31T14:08:33;1999.90;;;999.90;;
39222;SDS011;24936;46.328;11.026;2023-07-31T14:10:59;1999.90;;;999.90;;
39222;SDS011;24936;46.328;11.026;2023-07-31T14:13:24;1999.90;;;999.90;;
39222;SDS011;24936;46.328;11.026;2023-07-31T14:15:50;1999.90;;;999.90;;
39222;SDS011;24936;46.328;11.026;2023-07-31T14:18:15;1999.90;;;999.90;;
39222;SDS011;24936;46.328;11.026;2023-07-31T14:20:40;1999.90;;;999.90;;
39222;SDS011;24936;46.328;11.026;2023-07-31T14:23:06;1999.90;;;999.90;;
39222;SDS011;24936;46.328;11.026;2023-07-31T14:25:31;1999.90;;;999.90;;
39222;SDS011;24936;46.328;11.026;2023-07-31T14:27:57;1999.90;;;999.90;;
39222;SDS011;24936;46.328;11.026;2023-07-31T14:30:22;1999.90;;;999.90;;
39222;SDS011;24936;46.328;11.026;2023-07-31T14:32:48;1999.90;;;999.90;;
39222;SDS011;24936;46.328;11.026;2023-07-31T14:35:13;1999.90;;;999.90;;
39222;SDS011;24936;46.328;11.026;2023-07-31T14:37:40;1999.90;;;999.90;;
39222;SDS011;24936;46.328;11.026;2023-07-31T14:40:10;1999.90;;;999.90;;
39222;SDS011;24936;46.328;11.026;2023-07-31T14:42:38;1999.90;;;999.90;;
39222;SDS011;24936;46.328;11.026;2023-07-31T14:45:07;1999.90;;;999.90;;
39222;SDS011;24936;46.328;11.026;2023-07-31T14:47:33;1999.90;;;999.90;;